sensor_id;sensor_type;location;lat;lon;timestamp;P1;durP1;ratioP1;P2;durP2;ratioP2
44120;SDS011;29783;52.504;13.478;2022-07-21T00:01:49;15.43;;;5.30;;
44120;SDS011;29783;52.504;13.478;2022-07-21T00:04:16;13.35;;;5.28;;
44120;SDS011;29783;52.504;13.478;2022-07-21T00:06:42;11.20;;;4.88;;
44120;SDS011;29783;52.504;13.478;2022-07-21T00:09:09;14.75;;;5.32;;
44120;SDS011;29783;52.504;13.478;2022-07-21T00:11:35;10.18;;;5.03;;
44120;SDS011;29783;52.504;13.478;2022-07-21T00:14:01;13.48;;;5.05;;
44120;SDS011;29783;52.504;13.478;2022-07-21T00:16:28;16.55;;;5.35;;
44120;SDS011;29783;52.504;13.478;2022-07-21T00:18:54;8.70;;;5.25;;
44120;SDS011;29783;52.504;13.478;2022-07-21T00:21:19;15.13;;;5.68;;
44120;SDS011;29783;52.504;13.478;2022-07-21T00:23:45;11.88;;;4.95;;
44120;SDS011;29783;52.504;13.478;2022-07-21T00:26:11;12.65;;;5.43;;
44120;SDS011;29783;52.504;13.478;2022-07-21T00:28:37;14.52;;;5.35;;
44120;SDS011;29783;52.504;13.478;2022-07-21T00:31:03;24.00;;;5.80;;
44120;SDS011;29783;52.504;13.478;2022-07-21T00:33:29;13.73;;;5.15;;
44120;SDS011;29783;52.504;13.478;2022-07-21T00:35:55;12.55;;;4.93;;
44120;SDS011;29783;52.504;13.478;2022-07-21T00:38:20;7.28;;;5.13;;
44120;SDS011;29783;52.504;13.478;2022-07-21T00:40:46;9.75;;;4.95;;
44120;SDS011;29783;52.504;13.478;2022-07-21T00:43:12;8.88;;;5.22;;
44120;SDS011;29783;52.504;13.478;2022-07-21T00:45:37;15.18;;;5.47;;
44120;SDS011;29783;52.504;13.478;2022-07-21T00:48:03;14.40;;;5.28;;
44120;SDS011;29783;52.504;13.478;2022-07-21T00:50:29;10.77;;;5.40;;
44120;SDS011;29783;52.504;13.478;2022-07-21T00:52:57;10.63;;;5.25;;
44120;SDS011;29783;52.504;13.478;2022-07-21T00:55:23;9.95;;;5.22;;
44120;SDS011;29783;52.504;13.478;2022-07-21T00:57:50;9.57;;;5.18;;
44120;SDS011;29783;52.504;13.478;2022-07-21T01:00:21;13.27;;;5.05;;
44120;SDS011;29783;52.504;13.478;2022-07-21T01:02:54;14.57;;;5.85;;
44120;SDS011;29783;52.504;13.478;2022-07-21T01:05:20;12.13;;;5.38;;
44120;SDS011;29783;52.504;13.478;2022-07-21T01:07:48;10.55;;;5.07;;
44120;SDS011;29783;52.504;13.478;2022-07-21T01:10:15;14.25;;;4.95;;
44120;SDS011;29783;52.504;13.478;2022-07-21T01:12:42;18.42;;;5.10;;
44120;SDS011;29783;52.504;13.478;2022-07-21T01:15:09;12.40;;;5.20;;
44120;SDS011;29783;52.504;13.478;2022-07-21T01:17:36;11.88;;;4.88;;
44120;SDS011;29783;52.504;13.478;2022-07-21T01:20:03;12.15;;;5.22;;
44120;SDS011;29783;52.504;13.478;2022-07-21T01:22:31;12.75;;;5.30;;
44120;SDS011;29783;52.504;13.478;2022-07-21T01:24:58;15.07;;;5.32;;
44120;SDS011;29783;52.504;13.478;2022-07-21T01:27:27;14.50;;;4.78;;
44120;SDS011;29783;52.504;13.478;2022-07-21T01:29:54;15.63;;;5.43;;
44120;SDS011;29783;52.504;13.478;2022-07-21T01:32:20;13.15;;;5.10;;
44120;SDS011;29783;52.504;13.478;2022-07-21T01:34:46;14.38;;;5.10;;
44120;SDS011;29783;52.504;13.478;2022-07-21T01:37:12;13.43;;;5.65;;
44120;SDS011;29783;52.504;13.478;2022-07-21T01:39:39;8.73;;;5.13;;
44120;SDS011;29783;52.504;13.478;2022-07-21T01:42:23;16.08;;;5.55;;
44120;SDS011;29783;52.504;13.478;2022-07-21T01:44:49;9.75;;;4.78;;
44120;SDS011;29783;52.504;13.478;2022-07-21T01:47:15;15.70;;;5.03;;
44120;SDS011;29783;52.504;13.478;2022-07-21T01:49:42;10.18;;;4.80;;
44120;SDS011;29783;52.504;13.478;2022-07-21T01:52:08;8.32;;;5.40;;
44120;SDS011;29783;52.504;13.478;2022-07-21T01:54:34;15.30;;;5.70;;
44120;SDS011;29783;52.504;13.478;2022-07-21T01:57:00;8.60;;;5.05;;
44120;SDS011;29783;52.504;13.478;2022-07-21T01:59:26;15.75;;;5.40;;
44120;SDS011;29783;52.504;13.478;2022-07-21T02:01:52;14.82;;;5.53;;
44120;SDS011;29783;52.504;13.478;2022-07-21T02:04:18;14.63;;;5.40;;
44120;SDS011;29783;52.504;13.478;2022-07-21T02:06:44;14.65;;;5.28;;
44120;SDS011;29783;52.504;13.478;2022-07-21T02:09:09;14.65;;;5.30;;
44120;SDS011;29783;52.504;13.478;2022-07-21T02:11:35;14.20;;;5.32;;
44120;SDS011;29783;52.504;13.478;2022-07-21T02:14:01;16.40;;;5.10;;
44120;SDS011;29783;52.504;13.478;2022-07-21T02:16:27;10.35;;;4.95;;
44120;SDS011;29783;52.504;13.478;2022-07-21T02:18:52;7.97;;;5.13;;
44120;SDS011;29783;52.504;13.478;2022-07-21T02:21:18;10.95;;;5.22;;
44120;SDS011;29783;52.504;13.478;2022-07-21T02:23:44;10.88;;;5.13;;
44120;SDS011;29783;52.504;13.478;2022-07-21T02:26:10;10.82;;;5.05;;
44120;SDS011;29783;52.504;13.478;2022-07-21T02:28:36;15.80;;;5.43;;
44120;SDS011;29783;52.504;13.478;2022-07-21T02:31:02;15.90;;;5.38;;
44120;SDS011;29783;52.504;13.478;2022-07-21T02:33:27;11.25;;;5.30;;
44120;SDS011;29783;52.504;13.478;2022-07-21T02:35:53;8.75;;;5.15;;
44120;SDS011;29783;52.504;13.478;2022-07-21T02:38:19;10.93;;;5.00;;
44120;SDS011;29783;52.504;13.478;2022-07-21T02:40:45;13.55;;;4.90;;
44120;SDS011;29783;52.504;13.478;2022-07-21T02:43:11;12.93;;;5.32;;
44120;SDS011;29783;52.504;13.478;2022-07-21T02:45:37;12.48;;;5.38;;
44120;SDS011;29783;52.504;13.478;2022-07-21T02:48:07;12.50;;;5.75;;
44120;SDS011;29783;52.504;13.478;2022-07-21T02:50:35;22.60;;;5.40;;
44120;SDS011;29783;52.504;13.478;2022-07-21T02:53:06;14.07;;;5.00;;
44120;SDS011;29783;52.504;13.478;2022-07-21T02:55:36;11.48;;;5.43;;
44120;SDS011;29783;52.504;13.478;2022-07-21T02:58:03;8.50;;;4.82;;
44120;SDS011;29783;52.504;13.478;2022-07-21T03:00:33;11.45;;;5.22;;
44120;SDS011;29783;52.504;13.478;2022-07-21T03:03:00;8.77;;;5.00;;
44120;SDS011;29783;52.504;13.478;2022-07-21T03:05:25;14.30;;;5.10;;
44120;SDS011;29783;52.504;13.478;2022-07-21T03:07:51;13.18;;;5.15;;
44120;SDS011;29783;52.504;13.478;2022-07-21T03:10:17;10.38;;;4.70;;
44120;SDS011;29783;52.504;13.478;2022-07-21T03:12:42;13.50;;;4.78;;
44120;SDS011;29783;52.504;13.478;2022-07-21T03:15:08;10.43;;;4.95;;
44120;SDS011;29783;52.504;13.478;2022-07-21T03:17:34;8.32;;;4.45;;
44120;SDS011;29783;52.504;13.478;2022-07-21T03:20:00;7.80;;;5.10;;
44120;SDS011;29783;52.504;13.478;2022-07-21T03:22:26;11.57;;;5.07;;
44120;SDS011;29783;52.504;13.478;2022-07-21T03:24:51;18.08;;;5.07;;
44120;SDS011;29783;52.504;13.478;2022-07-21T03:27:17;10.75;;;4.97;;
44120;SDS011;29783;52.504;13.478;2022-07-21T03:29:43;10.00;;;4.57;;
44120;SDS011;29783;52.504;13.478;2022-07-21T03:32:09;15.25;;;5.20;;
44120;SDS011;29783;52.504;13.478;2022-07-21T03:34:35;16.83;;;4.93;;
44120;SDS011;29783;52.504;13.478;2022-07-21T03:37:00;20.00;;;5.47;;
44120;SDS011;29783;52.504;13.478;2022-07-21T03:39:26;15.88;;;5.40;;
44120;SDS011;29783;52.504;13.478;2022-07-21T03:41:52;14.05;;;5.03;;
44120;SDS011;29783;52.504;13.478;2022-07-21T03:44:18;11.30;;;4.68;;
44120;SDS011;29783;52.504;13.478;2022-07-21T03:46:43;12.00;;;4.60;;
44120;SDS011;29783;52.504;13.478;2022-07-21T03:49:09;18.50;;;5.35;;
44120;SDS011;29783;52.504;13.478;2022-07-21T03:51:35;11.20;;;4.82;;
44120;SDS011;29783;52.504;13.478;2022-07-21T03:54:00;16.70;;;4.60;;
44120;SDS011;29783;52.504;13.478;2022-07-21T03:56:27;13.85;;;4.57;;
44120;SDS011;29783;52.504;13.478;2022-07-21T03:58:53;8.43;;;4.30;;
44120;SDS011;29783;52.504;13.478;2022-07-21T04:01:19;15.77;;;4.10;;
44120;SDS011;29783;52.504;13.478;2022-07-21T04:03:45;12.40;;;4.35;;
44120;SDS011;29783;52.504;13.478;2022-07-21T04:06:11;10.35;;;4.30;;
44120;SDS011;29783;52.504;13.478;2022-07-21T04:08:37;9.73;;;4.30;;
44120;SDS011;29783;52.504;13.478;2022-07-21T04:11:03;10.15;;;4.22;;
44120;SDS011;29783;52.504;13.478;2022-07-21T04:13:29;8.25;;;4.07;;
44120;SDS011;29783;52.504;13.478;2022-07-21T04:15:55;16.17;;;4.45;;
44120;SDS011;29783;52.504;13.478;2022-07-21T04:18:21;10.55;;;4.13;;
44120;SDS011;29783;52.504;13.478;2022-07-21T04:20:46;16.88;;;4.32;;
44120;SDS011;29783;52.504;13.478;2022-07-21T04:23:12;11.65;;;4.07;;
44120;SDS011;29783;52.504;13.478;2022-07-21T04:25:38;7.85;;;3.80;;
44120;SDS011;29783;52.504;13.478;2022-07-21T04:28:04;9.13;;;3.78;;
44120;SDS011;29783;52.504;13.478;2022-07-21T04:30:31;9.93;;;4.10;;
44120;SDS011;29783;52.504;13.478;2022-07-21T04:32:57;9.10;;;4.18;;
44120;SDS011;29783;52.504;13.478;2022-07-21T04:35:23;11.00;;;4.45;;
44120;SDS011;29783;52.504;13.478;2022-07-21T04:37:49;8.07;;;4.00;;
44120;SDS011;29783;52.504;13.478;2022-07-21T04:40:14;12.90;;;4.13;;
44120;SDS011;29783;52.504;13.478;2022-07-21T04:42:41;17.75;;;4.53;;
44120;SDS011;29783;52.504;13.478;2022-07-21T04:45:10;16.77;;;4.30;;
44120;SDS011;29783;52.504;13.478;2022-07-21T04:47:47;12.65;;;3.88;;
44120;SDS011;29783;52.504;13.478;2022-07-21T04:50:15;12.35;;;4.50;;
44120;SDS011;29783;52.504;13.478;2022-07-21T04:52:42;17.30;;;4.10;;
44120;SDS011;29783;52.504;13.478;2022-07-21T04:55:09;16.20;;;4.55;;
44120;SDS011;29783;52.504;13.478;2022-07-21T04:57:36;19.25;;;4.72;;
44120;SDS011;29783;52.504;13.478;2022-07-21T05:00:03;12.38;;;4.70;;
44120;SDS011;29783;52.504;13.478;2022-07-21T05:02:30;25.58;;;5.22;;
44120;SDS011;29783;52.504;13.478;2022-07-21T05:04:56;18.40;;;5.00;;
44120;SDS011;29783;52.504;13.478;2022-07-21T05:07:22;18.50;;;5.30;;
44120;SDS011;29783;52.504;13.478;2022-07-21T05:09:47;39.58;;;5.53;;
44120;SDS011;29783;52.504;13.478;2022-07-21T05:12:13;19.50;;;4.93;;
44120;SDS011;29783;52.504;13.478;2022-07-21T05:14:39;17.70;;;5.32;;
44120;SDS011;29783;52.504;13.478;2022-07-21T05:17:04;29.17;;;6.32;;
44120;SDS011;29783;52.504;13.478;2022-07-21T05:19:30;22.75;;;5.90;;
44120;SDS011;29783;52.504;13.478;2022-07-21T05:21:56;20.23;;;5.95;;
44120;SDS011;29783;52.504;13.478;2022-07-21T05:24:21;25.45;;;7.60;;
44120;SDS011;29783;52.504;13.478;2022-07-21T05:26:47;23.92;;;8.10;;
44120;SDS011;29783;52.504;13.478;2022-07-21T05:29:13;26.67;;;9.05;;
44120;SDS011;29783;52.504;13.478;2022-07-21T05:31:39;23.23;;;10.02;;
44120;SDS011;29783;52.504;13.478;2022-07-21T05:34:04;32.25;;;11.80;;
44120;SDS011;29783;52.504;13.478;2022-07-21T05:36:30;25.02;;;12.10;;
44120;SDS011;29783;52.504;13.478;2022-07-21T05:38:56;25.38;;;11.93;;
44120;SDS011;29783;52.504;13.478;2022-07-21T05:41:22;22.90;;;11.05;;
44120;SDS011;29783;52.504;13.478;2022-07-21T05:43:47;20.15;;;11.10;;
44120;SDS011;29783;52.504;13.478;2022-07-21T05:46:13;19.77;;;11.75;;
44120;SDS011;29783;52.504;13.478;2022-07-21T05:48:39;31.17;;;11.52;;
44120;SDS011;29783;52.504;13.478;2022-07-21T05:51:05;33.70;;;12.70;;
44120;SDS011;29783;52.504;13.478;2022-07-21T05:53:31;30.02;;;11.95;;
44120;SDS011;29783;52.504;13.478;2022-07-21T05:55:57;26.08;;;12.48;;
44120;SDS011;29783;52.504;13.478;2022-07-21T05:58:22;23.15;;;10.70;;
44120;SDS011;29783;52.504;13.478;2022-07-21T06:00:49;31.20;;;13.40;;
44120;SDS011;29783;52.504;13.478;2022-07-21T06:03:33;32.78;;;12.52;;
44120;SDS011;29783;52.504;13.478;2022-07-21T06:06:02;24.15;;;12.32;;
44120;SDS011;29783;52.504;13.478;2022-07-21T06:08:28;29.33;;;13.32;;
44120;SDS011;29783;52.504;13.478;2022-07-21T06:10:54;23.50;;;12.82;;
44120;SDS011;29783;52.504;13.478;2022-07-21T06:13:20;38.20;;;13.77;;
44120;SDS011;29783;52.504;13.478;2022-07-21T06:15:49;31.40;;;12.35;;
44120;SDS011;29783;52.504;13.478;2022-07-21T06:18:15;23.77;;;12.55;;
44120;SDS011;29783;52.504;13.478;2022-07-21T06:20:41;31.55;;;13.30;;
44120;SDS011;29783;52.504;13.478;2022-07-21T06:23:07;26.88;;;13.02;;
44120;SDS011;29783;52.504;13.478;2022-07-21T06:25:33;27.60;;;12.95;;
44120;SDS011;29783;52.504;13.478;2022-07-21T06:27:59;24.13;;;12.55;;
44120;SDS011;29783;52.504;13.478;2022-07-21T06:30:25;25.27;;;13.23;;
44120;SDS011;29783;52.504;13.478;2022-07-21T06:32:51;27.85;;;13.30;;
44120;SDS011;29783;52.504;13.478;2022-07-21T06:35:16;27.33;;;12.02;;
44120;SDS011;29783;52.504;13.478;2022-07-21T06:37:45;27.13;;;14.18;;
44120;SDS011;29783;52.504;13.478;2022-07-21T06:40:11;33.83;;;12.25;;
44120;SDS011;29783;52.504;13.478;2022-07-21T06:46:01;26.13;;;13.40;;
44120;SDS011;29783;52.504;13.478;2022-07-21T06:48:27;29.42;;;12.13;;
44120;SDS011;29783;52.504;13.478;2022-07-21T06:50:53;25.70;;;12.68;;
44120;SDS011;29783;52.504;13.478;2022-07-21T06:53:19;25.23;;;12.27;;
44120;SDS011;29783;52.504;13.478;2022-07-21T06:55:46;20.90;;;12.25;;
44120;SDS011;29783;52.504;13.478;2022-07-21T06:58:13;24.98;;;13.50;;
44120;SDS011;29783;52.504;13.478;2022-07-21T07:00:42;24.85;;;12.77;;
44120;SDS011;29783;52.504;13.478;2022-07-21T07:03:09;19.88;;;12.25;;
44120;SDS011;29783;52.504;13.478;2022-07-21T07:05:35;24.52;;;11.93;;
44120;SDS011;29783;52.504;13.478;2022-07-21T07:08:02;49.55;;;12.20;;
44120;SDS011;29783;52.504;13.478;2022-07-21T07:10:28;32.55;;;12.40;;
44120;SDS011;29783;52.504;13.478;2022-07-21T07:12:54;31.23;;;12.23;;
44120;SDS011;29783;52.504;13.478;2022-07-21T07:15:21;28.33;;;11.00;;
44120;SDS011;29783;52.504;13.478;2022-07-21T07:17:47;29.67;;;11.80;;
44120;SDS011;29783;52.504;13.478;2022-07-21T07:20:14;21.58;;;11.18;;
44120;SDS011;29783;52.504;13.478;2022-07-21T07:22:40;28.38;;;11.38;;
44120;SDS011;29783;52.504;13.478;2022-07-21T07:25:06;29.85;;;11.23;;
44120;SDS011;29783;52.504;13.478;2022-07-21T07:27:32;20.42;;;10.98;;
44120;SDS011;29783;52.504;13.478;2022-07-21T07:29:58;23.23;;;10.98;;
44120;SDS011;29783;52.504;13.478;2022-07-21T07:32:26;20.30;;;11.63;;
44120;SDS011;29783;52.504;13.478;2022-07-21T07:34:52;33.33;;;11.68;;
44120;SDS011;29783;52.504;13.478;2022-07-21T07:37:18;18.98;;;9.65;;
44120;SDS011;29783;52.504;13.478;2022-07-21T07:39:44;20.40;;;10.25;;
44120;SDS011;29783;52.504;13.478;2022-07-21T07:42:10;21.92;;;11.25;;
44120;SDS011;29783;52.504;13.478;2022-07-21T07:44:36;20.73;;;10.23;;
44120;SDS011;29783;52.504;13.478;2022-07-21T07:47:02;20.98;;;10.38;;
44120;SDS011;29783;52.504;13.478;2022-07-21T07:49:28;19.90;;;9.20;;
44120;SDS011;29783;52.504;13.478;2022-07-21T07:51:55;22.77;;;9.88;;
44120;SDS011;29783;52.504;13.478;2022-07-21T07:54:21;23.65;;;8.75;;
44120;SDS011;29783;52.504;13.478;2022-07-21T07:56:47;17.23;;;9.52;;
44120;SDS011;29783;52.504;13.478;2022-07-21T07:59:13;24.30;;;9.40;;
44120;SDS011;29783;52.504;13.478;2022-07-21T08:01:39;28.77;;;8.93;;
44120;SDS011;29783;52.504;13.478;2022-07-21T08:04:05;24.52;;;9.15;;
44120;SDS011;29783;52.504;13.478;2022-07-21T08:06:31;21.95;;;9.50;;
44120;SDS011;29783;52.504;13.478;2022-07-21T08:08:57;19.67;;;9.10;;
44120;SDS011;29783;52.504;13.478;2022-07-21T08:11:23;27.50;;;9.45;;
44120;SDS011;29783;52.504;13.478;2022-07-21T08:13:49;18.63;;;8.35;;
44120;SDS011;29783;52.504;13.478;2022-07-21T08:16:14;19.60;;;8.02;;
44120;SDS011;29783;52.504;13.478;2022-07-21T08:18:41;39.28;;;9.18;;
44120;SDS011;29783;52.504;13.478;2022-07-21T08:21:07;31.58;;;9.18;;
44120;SDS011;29783;52.504;13.478;2022-07-21T08:23:33;25.20;;;8.20;;
44120;SDS011;29783;52.504;13.478;2022-07-21T08:25:59;26.27;;;8.05;;
44120;SDS011;29783;52.504;13.478;2022-07-21T08:28:28;17.63;;;8.45;;
44120;SDS011;29783;52.504;13.478;2022-07-21T08:30:54;21.30;;;8.23;;
44120;SDS011;29783;52.504;13.478;2022-07-21T08:33:19;21.85;;;8.23;;
44120;SDS011;29783;52.504;13.478;2022-07-21T08:35:45;23.58;;;9.13;;
44120;SDS011;29783;52.504;13.478;2022-07-21T08:38:11;26.45;;;8.15;;
44120;SDS011;29783;52.504;13.478;2022-07-21T08:40:38;19.85;;;8.40;;
44120;SDS011;29783;52.504;13.478;2022-07-21T08:43:06;26.33;;;7.43;;
44120;SDS011;29783;52.504;13.478;2022-07-21T08:45:34;14.88;;;7.70;;
44120;SDS011;29783;52.504;13.478;2022-07-21T08:48:02;26.25;;;8.27;;
44120;SDS011;29783;52.504;13.478;2022-07-21T08:50:29;13.88;;;7.55;;
44120;SDS011;29783;52.504;13.478;2022-07-21T08:52:57;16.83;;;7.57;;
44120;SDS011;29783;52.504;13.478;2022-07-21T08:55:24;23.25;;;7.78;;
44120;SDS011;29783;52.504;13.478;2022-07-21T09:01:11;15.25;;;7.78;;
44120;SDS011;29783;52.504;13.478;2022-07-21T09:03:37;19.58;;;8.15;;
44120;SDS011;29783;52.504;13.478;2022-07-21T09:11:08;16.10;;;7.35;;
44120;SDS011;29783;52.504;13.478;2022-07-21T09:13:37;19.25;;;6.75;;
44120;SDS011;29783;52.504;13.478;2022-07-21T09:16:03;16.73;;;7.10;;
44120;SDS011;29783;52.504;13.478;2022-07-21T09:18:29;15.23;;;7.50;;
44120;SDS011;29783;52.504;13.478;2022-07-21T09:20:55;15.77;;;7.22;;
44120;SDS011;29783;52.504;13.478;2022-07-21T09:23:24;16.48;;;7.28;;
44120;SDS011;29783;52.504;13.478;2022-07-21T09:25:51;14.55;;;7.63;;
44120;SDS011;29783;52.504;13.478;2022-07-21T09:28:25;23.15;;;7.35;;
44120;SDS011;29783;52.504;13.478;2022-07-21T09:30:57;22.90;;;6.63;;
44120;SDS011;29783;52.504;13.478;2022-07-21T09:36:04;15.98;;;6.03;;
44120;SDS011;29783;52.504;13.478;2022-07-21T09:41:04;20.30;;;6.72;;
44120;SDS011;29783;52.504;13.478;2022-07-21T09:43:35;24.80;;;7.30;;
44120;SDS011;29783;52.504;13.478;2022-07-21T09:46:11;19.35;;;6.68;;
44120;SDS011;29783;52.504;13.478;2022-07-21T09:48:40;9.98;;;6.28;;
44120;SDS011;29783;52.504;13.478;2022-07-21T09:54:01;21.63;;;6.57;;
44120;SDS011;29783;52.504;13.478;2022-07-21T09:56:35;18.25;;;6.70;;
44120;SDS011;29783;52.504;13.478;2022-07-21T09:59:05;15.00;;;6.13;;
44120;SDS011;29783;52.504;13.478;2022-07-21T10:01:37;13.85;;;5.50;;
44120;SDS011;29783;52.504;13.478;2022-07-21T10:04:04;22.65;;;6.00;;
44120;SDS011;29783;52.504;13.478;2022-07-21T10:06:31;12.63;;;5.30;;
44120;SDS011;29783;52.504;13.478;2022-07-21T10:08:58;15.73;;;5.47;;
44120;SDS011;29783;52.504;13.478;2022-07-21T10:11:26;14.50;;;4.68;;
44120;SDS011;29783;52.504;13.478;2022-07-21T10:13:59;13.52;;;4.97;;
44120;SDS011;29783;52.504;13.478;2022-07-21T10:16:33;18.27;;;5.15;;
44120;SDS011;29783;52.504;13.478;2022-07-21T10:19:08;25.13;;;5.05;;
44120;SDS011;29783;52.504;13.478;2022-07-21T10:25:45;15.32;;;4.75;;
44120;SDS011;29783;52.504;13.478;2022-07-21T10:30:52;11.23;;;4.55;;
44120;SDS011;29783;52.504;13.478;2022-07-21T10:33:20;11.32;;;4.65;;
44120;SDS011;29783;52.504;13.478;2022-07-21T10:36:06;8.20;;;4.07;;
44120;SDS011;29783;52.504;13.478;2022-07-21T10:38:33;20.25;;;4.32;;
44120;SDS011;29783;52.504;13.478;2022-07-21T10:41:01;13.80;;;4.53;;
44120;SDS011;29783;52.504;13.478;2022-07-21T10:45:53;15.27;;;3.92;;
44120;SDS011;29783;52.504;13.478;2022-07-21T10:51:08;14.20;;;4.35;;
44120;SDS011;29783;52.504;13.478;2022-07-21T10:53:35;24.70;;;5.00;;
44120;SDS011;29783;52.504;13.478;2022-07-21T10:56:02;16.00;;;4.65;;
44120;SDS011;29783;52.504;13.478;2022-07-21T10:58:29;21.67;;;4.57;;
44120;SDS011;29783;52.504;13.478;2022-07-21T11:00:57;15.50;;;4.18;;
44120;SDS011;29783;52.504;13.478;2022-07-21T11:08:32;10.93;;;3.60;;
44120;SDS011;29783;52.504;13.478;2022-07-21T11:11:09;7.88;;;3.78;;
44120;SDS011;29783;52.504;13.478;2022-07-21T11:17:10;6.22;;;3.22;;
44120;SDS011;29783;52.504;13.478;2022-07-21T11:24:47;8.75;;;3.58;;
44120;SDS011;29783;52.504;13.478;2022-07-21T11:27:16;9.43;;;3.42;;
44120;SDS011;29783;52.504;13.478;2022-07-21T11:29:54;9.68;;;3.50;;
44120;SDS011;29783;52.504;13.478;2022-07-21T11:32:28;10.43;;;3.33;;
44120;SDS011;29783;52.504;13.478;2022-07-21T11:34:55;14.18;;;3.70;;
44120;SDS011;29783;52.504;13.478;2022-07-21T11:37:35;8.82;;;3.58;;
44120;SDS011;29783;52.504;13.478;2022-07-21T11:40:19;7.80;;;3.53;;
44120;SDS011;29783;52.504;13.478;2022-07-21T11:42:50;6.78;;;3.17;;
44120;SDS011;29783;52.504;13.478;2022-07-21T11:45:25;13.73;;;3.15;;
44120;SDS011;29783;52.504;13.478;2022-07-21T11:47:58;12.63;;;3.30;;
44120;SDS011;29783;52.504;13.478;2022-07-21T11:50:24;11.63;;;3.35;;
44120;SDS011;29783;52.504;13.478;2022-07-21T11:52:51;13.80;;;3.65;;
44120;SDS011;29783;52.504;13.478;2022-07-21T11:55:27;8.18;;;3.65;;
44120;SDS011;29783;52.504;13.478;2022-07-21T11:57:54;7.65;;;3.50;;
44120;SDS011;29783;52.504;13.478;2022-07-21T12:00:29;10.32;;;3.45;;
44120;SDS011;29783;52.504;13.478;2022-07-21T12:03:06;17.38;;;3.85;;
44120;SDS011;29783;52.504;13.478;2022-07-21T12:05:35;13.05;;;3.80;;
44120;SDS011;29783;52.504;13.478;2022-07-21T12:08:04;13.75;;;3.28;;
44120;SDS011;29783;52.504;13.478;2022-07-21T12:10:33;12.45;;;3.70;;
44120;SDS011;29783;52.504;13.478;2022-07-21T12:13:01;12.00;;;3.47;;
44120;SDS011;29783;52.504;13.478;2022-07-21T12:15:31;14.63;;;3.88;;
44120;SDS011;29783;52.504;13.478;2022-07-21T12:18:16;16.85;;;3.55;;
44120;SDS011;29783;52.504;13.478;2022-07-21T12:20:44;6.35;;;3.50;;
44120;SDS011;29783;52.504;13.478;2022-07-21T12:25:44;18.88;;;4.18;;
44120;SDS011;29783;52.504;13.478;2022-07-21T12:28:11;15.75;;;4.20;;
44120;SDS011;29783;52.504;13.478;2022-07-21T12:30:41;12.23;;;4.10;;
44120;SDS011;29783;52.504;13.478;2022-07-21T12:33:10;8.43;;;3.72;;
44120;SDS011;29783;52.504;13.478;2022-07-21T12:35:44;18.48;;;4.07;;
44120;SDS011;29783;52.504;13.478;2022-07-21T12:38:35;15.70;;;4.38;;
44120;SDS011;29783;52.504;13.478;2022-07-21T12:41:12;7.90;;;3.75;;
44120;SDS011;29783;52.504;13.478;2022-07-21T12:43:40;16.08;;;3.83;;
44120;SDS011;29783;52.504;13.478;2022-07-21T12:46:09;10.68;;;4.18;;
44120;SDS011;29783;52.504;13.478;2022-07-21T12:48:37;16.83;;;4.30;;
44120;SDS011;29783;52.504;13.478;2022-07-21T12:53:35;20.65;;;4.30;;
44120;SDS011;29783;52.504;13.478;2022-07-21T12:56:02;17.23;;;4.45;;
44120;SDS011;29783;52.504;13.478;2022-07-21T12:58:28;11.90;;;4.35;;
44120;SDS011;29783;52.504;13.478;2022-07-21T13:00:55;14.55;;;4.18;;
44120;SDS011;29783;52.504;13.478;2022-07-21T13:03:21;20.48;;;4.32;;
44120;SDS011;29783;52.504;13.478;2022-07-21T13:05:47;9.93;;;3.83;;
44120;SDS011;29783;52.504;13.478;2022-07-21T13:08:13;10.07;;;3.28;;
44120;SDS011;29783;52.504;13.478;2022-07-21T13:10:43;7.80;;;3.20;;
44120;SDS011;29783;52.504;13.478;2022-07-21T13:13:10;9.32;;;3.33;;
44120;SDS011;29783;52.504;13.478;2022-07-21T13:15:35;10.88;;;3.33;;
44120;SDS011;29783;52.504;13.478;2022-07-21T13:18:01;6.15;;;3.45;;
44120;SDS011;29783;52.504;13.478;2022-07-21T13:20:27;6.90;;;3.10;;
44120;SDS011;29783;52.504;13.478;2022-07-21T13:22:53;7.60;;;3.15;;
44120;SDS011;29783;52.504;13.478;2022-07-21T13:25:19;15.38;;;3.97;;
44120;SDS011;29783;52.504;13.478;2022-07-21T13:27:45;9.80;;;3.30;;
44120;SDS011;29783;52.504;13.478;2022-07-21T13:30:11;14.25;;;3.00;;
44120;SDS011;29783;52.504;13.478;2022-07-21T13:32:37;12.63;;;3.78;;
44120;SDS011;29783;52.504;13.478;2022-07-21T13:35:03;9.75;;;3.33;;
44120;SDS011;29783;52.504;13.478;2022-07-21T13:37:30;10.10;;;3.20;;
44120;SDS011;29783;52.504;13.478;2022-07-21T13:39:56;6.82;;;3.33;;
44120;SDS011;29783;52.504;13.478;2022-07-21T13:42:21;8.35;;;3.58;;
44120;SDS011;29783;52.504;13.478;2022-07-21T13:44:47;7.50;;;3.55;;
44120;SDS011;29783;52.504;13.478;2022-07-21T13:47:13;11.35;;;3.75;;
44120;SDS011;29783;52.504;13.478;2022-07-21T13:49:38;6.22;;;3.80;;
44120;SDS011;29783;52.504;13.478;2022-07-21T13:52:04;7.32;;;3.90;;
44120;SDS011;29783;52.504;13.478;2022-07-21T13:54:30;9.02;;;4.18;;
44120;SDS011;29783;52.504;13.478;2022-07-21T13:56:56;9.80;;;3.88;;
44120;SDS011;29783;52.504;13.478;2022-07-21T13:59:22;11.45;;;3.63;;
44120;SDS011;29783;52.504;13.478;2022-07-21T14:01:48;7.45;;;3.80;;
44120;SDS011;29783;52.504;13.478;2022-07-21T14:04:14;11.50;;;4.20;;
44120;SDS011;29783;52.504;13.478;2022-07-21T14:06:40;14.38;;;3.97;;
44120;SDS011;29783;52.504;13.478;2022-07-21T14:09:05;6.75;;;3.78;;
44120;SDS011;29783;52.504;13.478;2022-07-21T14:11:31;8.48;;;4.22;;
44120;SDS011;29783;52.504;13.478;2022-07-21T14:13:57;10.15;;;4.15;;
44120;SDS011;29783;52.504;13.478;2022-07-21T14:16:23;10.68;;;4.70;;
44120;SDS011;29783;52.504;13.478;2022-07-21T14:18:48;7.40;;;4.25;;
44120;SDS011;29783;52.504;13.478;2022-07-21T14:21:14;7.18;;;3.55;;
44120;SDS011;29783;52.504;13.478;2022-07-21T14:23:40;6.40;;;3.92;;
44120;SDS011;29783;52.504;13.478;2022-07-21T14:26:06;7.75;;;3.83;;
44120;SDS011;29783;52.504;13.478;2022-07-21T14:28:31;5.28;;;3.70;;
44120;SDS011;29783;52.504;13.478;2022-07-21T14:30:57;6.18;;;3.60;;
44120;SDS011;29783;52.504;13.478;2022-07-21T14:33:24;6.43;;;3.88;;
44120;SDS011;29783;52.504;13.478;2022-07-21T14:35:50;8.40;;;4.07;;
44120;SDS011;29783;52.504;13.478;2022-07-21T14:38:15;6.90;;;4.38;;
44120;SDS011;29783;52.504;13.478;2022-07-21T14:40:42;11.23;;;4.22;;
44120;SDS011;29783;52.504;13.478;2022-07-21T14:43:08;9.90;;;3.70;;
44120;SDS011;29783;52.504;13.478;2022-07-21T14:45:34;13.73;;;3.78;;
44120;SDS011;29783;52.504;13.478;2022-07-21T14:48:00;7.85;;;3.83;;
44120;SDS011;29783;52.504;13.478;2022-07-21T14:50:26;8.55;;;3.67;;
44120;SDS011;29783;52.504;13.478;2022-07-21T14:52:53;5.10;;;3.53;;
44120;SDS011;29783;52.504;13.478;2022-07-21T14:55:20;7.60;;;3.88;;
44120;SDS011;29783;52.504;13.478;2022-07-21T14:57:47;8.90;;;4.00;;
44120;SDS011;29783;52.504;13.478;2022-07-21T15:00:14;5.20;;;3.50;;
44120;SDS011;29783;52.504;13.478;2022-07-21T15:02:40;4.65;;;3.30;;
44120;SDS011;29783;52.504;13.478;2022-07-21T15:05:06;7.28;;;3.08;;
44120;SDS011;29783;52.504;13.478;2022-07-21T15:07:32;4.50;;;2.75;;
44120;SDS011;29783;52.504;13.478;2022-07-21T15:09:58;4.90;;;2.70;;
44120;SDS011;29783;52.504;13.478;2022-07-21T15:12:24;3.83;;;2.35;;
44120;SDS011;29783;52.504;13.478;2022-07-21T15:14:50;7.68;;;2.60;;